sensor_id;sensor_type;location;lat;lon;timestamp;P1;durP1;ratioP1;P2;durP2;ratioP2
46086;SDS011;31824;49.648;8.640;2023-07-24T00:02:56;3.05;;;1.40;;
46086;SDS011;31824;49.648;8.640;2023-07-24T00:05:58;5.25;;;1.10;;
46086;SDS011;31824;49.648;8.640;2023-07-24T00:09:01;3.15;;;1.08;;
46086;SDS011;31824;49.648;8.640;2023-07-24T00:12:04;3.58;;;1.27;;
46086;SDS011;31824;49.648;8.640;2023-07-24T00:15:06;3.70;;;1.15;;
46086;SDS011;31824;49.648;8.640;2023-07-24T00:18:10;2.78;;;1.10;;
46086;SDS011;31824;49.648;8.640;2023-07-24T00:21:12;2.75;;;1.10;;
46086;SDS011;31824;49.648;8.640;2023-07-24T00:24:14;3.97;;;1.13;;
46086;SDS011;31824;49.648;8.640;2023-07-24T00:27:17;3.90;;;1.30;;
46086;SDS011;31824;49.648;8.640;2023-07-24T00:30:19;4.25;;;1.33;;
46086;SDS011;31824;49.648;8.640;2023-07-24T00:33:22;7.22;;;1.70;;
46086;SDS011;31824;49.648;8.640;2023-07-24T00:36:24;4.15;;;1.73;;
46086;SDS011;31824;49.648;8.640;2023-07-24T00:39:25;4.10;;;1.50;;
46086;SDS011;31824;49.648;8.640;2023-07-24T00:42:31;3.50;;;1.50;;
46086;SDS011;31824;49.648;8.640;2023-07-24T00:45:33;3.40;;;1.48;;
46086;SDS011;31824;49.648;8.640;2023-07-24T00:48:36;3.38;;;1.60;;
46086;SDS011;31824;49.648;8.640;2023-07-24T00:51:41;6.13;;;1.55;;
46086;SDS011;31824;49.648;8.640;2023-07-24T00:54:43;3.72;;;1.60;;
46086;SDS011;31824;49.648;8.640;2023-07-24T00:57:47;4.25;;;1.65;;
46086;SDS011;31824;49.648;8.640;2023-07-24T01:00:49;6.70;;;2.05;;
46086;SDS011;31824;49.648;8.640;2023-07-24T01:03:53;5.15;;;1.55;;
46086;SDS011;31824;49.648;8.640;2023-07-24T01:06:59;5.25;;;1.67;;
46086;SDS011;31824;49.648;8.640;2023-07-24T01:10:02;3.88;;;1.67;;
46086;SDS011;31824;49.648;8.640;2023-07-24T01:13:05;3.97;;;1.48;;
46086;SDS011;31824;49.648;8.640;2023-07-24T01:16:17;5.13;;;2.13;;
46086;SDS011;31824;49.648;8.640;2023-07-24T01:19:29;4.82;;;1.83;;
46086;SDS011;31824;49.648;8.640;2023-07-24T01:22:38;5.13;;;1.70;;
46086;SDS011;31824;49.648;8.640;2023-07-24T01:25:49;7.07;;;1.90;;
46086;SDS011;31824;49.648;8.640;2023-07-24T01:28:56;4.88;;;1.85;;
46086;SDS011;31824;49.648;8.640;2023-07-24T01:31:57;5.55;;;1.98;;
46086;SDS011;31824;49.648;8.640;2023-07-24T01:34:59;3.80;;;1.70;;
46086;SDS011;31824;49.648;8.640;2023-07-24T01:38:03;5.38;;;1.80;;
46086;SDS011;31824;49.648;8.640;2023-07-24T01:41:07;5.90;;;1.90;;
46086;SDS011;31824;49.648;8.640;2023-07-24T01:44:11;4.65;;;1.55;;
46086;SDS011;31824;49.648;8.640;2023-07-24T01:47:14;4.53;;;1.65;;
46086;SDS011;31824;49.648;8.640;2023-07-24T01:50:16;3.67;;;1.70;;
46086;SDS011;31824;49.648;8.640;2023-07-24T01:53:18;4.40;;;1.85;;
46086;SDS011;31824;49.648;8.640;2023-07-24T01:56:22;4.75;;;1.60;;
46086;SDS011;31824;49.648;8.640;2023-07-24T01:59:23;8.85;;;1.90;;
46086;SDS011;31824;49.648;8.640;2023-07-24T02:02:25;5.65;;;1.85;;
46086;SDS011;31824;49.648;8.640;2023-07-24T02:05:27;5.25;;;2.17;;
46086;SDS011;31824;49.648;8.640;2023-07-24T02:08:29;5.93;;;1.98;;
46086;SDS011;31824;49.648;8.640;2023-07-24T02:11:33;4.22;;;1.75;;
46086;SDS011;31824;49.648;8.640;2023-07-24T02:14:35;6.25;;;2.00;;
46086;SDS011;31824;49.648;8.640;2023-07-24T02:17:36;4.25;;;2.00;;
46086;SDS011;31824;49.648;8.640;2023-07-24T02:20:38;5.28;;;2.10;;
46086;SDS011;31824;49.648;8.640;2023-07-24T02:23:40;5.15;;;1.83;;
46086;SDS011;31824;49.648;8.640;2023-07-24T02:26:43;5.38;;;2.50;;
46086;SDS011;31824;49.648;8.640;2023-07-24T02:29:45;4.90;;;1.98;;
46086;SDS011;31824;49.648;8.640;2023-07-24T02:32:47;5.32;;;2.10;;
46086;SDS011;31824;49.648;8.640;2023-07-24T02:35:50;3.72;;;1.65;;
46086;SDS011;31824;49.648;8.640;2023-07-24T02:38:54;5.63;;;2.15;;
46086;SDS011;31824;49.648;8.640;2023-07-24T02:41:58;5.05;;;1.95;;
46086;SDS011;31824;49.648;8.640;2023-07-24T02:45:00;6.75;;;2.15;;
46086;SDS011;31824;49.648;8.640;2023-07-24T02:48:03;4.32;;;1.88;;
46086;SDS011;31824;49.648;8.640;2023-07-24T02:51:06;4.53;;;1.70;;
46086;SDS011;31824;49.648;8.640;2023-07-24T02:54:07;4.63;;;1.70;;
46086;SDS011;31824;49.648;8.640;2023-07-24T02:57:10;7.07;;;2.22;;
46086;SDS011;31824;49.648;8.640;2023-07-24T03:00:12;4.63;;;1.98;;
46086;SDS011;31824;49.648;8.640;2023-07-24T03:03:15;5.03;;;1.92;;
46086;SDS011;31824;49.648;8.640;2023-07-24T03:06:17;5.13;;;1.60;;
46086;SDS011;31824;49.648;8.640;2023-07-24T03:09:18;6.05;;;2.10;;
46086;SDS011;31824;49.648;8.640;2023-07-24T03:12:22;4.38;;;1.70;;
46086;SDS011;31824;49.648;8.640;2023-07-24T03:15:23;4.68;;;2.08;;
46086;SDS011;31824;49.648;8.640;2023-07-24T03:18:25;5.93;;;2.10;;
46086;SDS011;31824;49.648;8.640;2023-07-24T03:21:27;4.93;;;1.73;;
46086;SDS011;31824;49.648;8.640;2023-07-24T03:24:29;5.18;;;1.98;;
46086;SDS011;31824;49.648;8.640;2023-07-24T03:27:32;4.13;;;1.80;;
46086;SDS011;31824;49.648;8.640;2023-07-24T03:30:34;4.40;;;2.00;;
46086;SDS011;31824;49.648;8.640;2023-07-24T03:33:37;4.70;;;1.70;;
46086;SDS011;31824;49.648;8.640;2023-07-24T03:36:39;4.20;;;1.60;;
46086;SDS011;31824;49.648;8.640;2023-07-24T03:42:46;5.13;;;1.50;;
46086;SDS011;31824;49.648;8.640;2023-07-24T03:45:48;5.22;;;2.03;;
46086;SDS011;31824;49.648;8.640;2023-07-24T03:48:52;4.47;;;2.03;;
46086;SDS011;31824;49.648;8.640;2023-07-24T03:51:53;5.40;;;2.15;;
46086;SDS011;31824;49.648;8.640;2023-07-24T03:54:55;4.45;;;2.15;;
46086;SDS011;31824;49.648;8.640;2023-07-24T03:57:58;5.30;;;2.08;;
46086;SDS011;31824;49.648;8.640;2023-07-24T04:01:00;5.53;;;2.10;;
46086;SDS011;31824;49.648;8.640;2023-07-24T04:04:02;5.13;;;1.90;;
46086;SDS011;31824;49.648;8.640;2023-07-24T04:07:04;8.48;;;2.22;;
46086;SDS011;31824;49.648;8.640;2023-07-24T04:10:07;7.07;;;2.55;;
46086;SDS011;31824;49.648;8.640;2023-07-24T04:13:10;4.90;;;1.90;;
46086;SDS011;31824;49.648;8.640;2023-07-24T04:16:12;5.28;;;2.10;;
46086;SDS011;31824;49.648;8.640;2023-07-24T04:19:14;5.32;;;2.25;;
46086;SDS011;31824;49.648;8.640;2023-07-24T04:22:15;5.25;;;1.90;;
46086;SDS011;31824;49.648;8.640;2023-07-24T04:25:17;4.82;;;1.95;;
46086;SDS011;31824;49.648;8.640;2023-07-24T04:28:39;4.57;;;1.95;;
46086;SDS011;31824;49.648;8.640;2023-07-24T04:31:42;5.40;;;1.90;;
46086;SDS011;31824;49.648;8.640;2023-07-24T04:34:44;4.93;;;2.20;;
46086;SDS011;31824;49.648;8.640;2023-07-24T04:37:45;5.50;;;2.10;;
46086;SDS011;31824;49.648;8.640;2023-07-24T04:40:47;5.53;;;1.98;;
46086;SDS011;31824;49.648;8.640;2023-07-24T04:43:50;11.85;;;3.15;;
46086;SDS011;31824;49.648;8.640;2023-07-24T04:46:52;6.97;;;1.95;;
46086;SDS011;31824;49.648;8.640;2023-07-24T04:49:54;4.75;;;1.83;;
46086;SDS011;31824;49.648;8.640;2023-07-24T04:52:56;4.85;;;1.88;;
46086;SDS011;31824;49.648;8.640;2023-07-24T04:55:58;4.35;;;1.88;;
46086;SDS011;31824;49.648;8.640;2023-07-24T04:59:04;4.03;;;1.83;;
46086;SDS011;31824;49.648;8.640;2023-07-24T05:02:06;7.28;;;2.28;;
46086;SDS011;31824;49.648;8.640;2023-07-24T05:05:08;4.65;;;2.30;;
46086;SDS011;31824;49.648;8.640;2023-07-24T05:08:28;6.57;;;2.35;;
46086;SDS011;31824;49.648;8.640;2023-07-24T05:11:30;6.32;;;2.55;;
46086;SDS011;31824;49.648;8.640;2023-07-24T05:14:33;4.20;;;1.95;;
46086;SDS011;31824;49.648;8.640;2023-07-24T05:17:35;4.57;;;2.08;;
46086;SDS011;31824;49.648;8.640;2023-07-24T05:20:36;5.07;;;1.90;;
46086;SDS011;31824;49.648;8.640;2023-07-24T05:23:38;5.03;;;2.20;;
46086;SDS011;31824;49.648;8.640;2023-07-24T05:26:40;4.65;;;1.70;;
46086;SDS011;31824;49.648;8.640;2023-07-24T05:29:43;6.88;;;2.38;;
46086;SDS011;31824;49.648;8.640;2023-07-24T05:32:46;4.43;;;1.92;;
46086;SDS011;31824;49.648;8.640;2023-07-24T05:35:48;5.20;;;2.13;;
46086;SDS011;31824;49.648;8.640;2023-07-24T05:38:51;5.57;;;2.03;;
46086;SDS011;31824;49.648;8.640;2023-07-24T05:41:53;4.45;;;2.10;;
46086;SDS011;31824;49.648;8.640;2023-07-24T05:44:56;5.90;;;2.28;;
46086;SDS011;31824;49.648;8.640;2023-07-24T05:47:58;5.18;;;2.00;;
46086;SDS011;31824;49.648;8.640;2023-07-24T05:51:00;5.00;;;2.25;;
46086;SDS011;31824;49.648;8.640;2023-07-24T05:54:02;4.88;;;2.05;;
46086;SDS011;31824;49.648;8.640;2023-07-24T05:57:04;6.05;;;2.63;;
46086;SDS011;31824;49.648;8.640;2023-07-24T06:00:09;5.55;;;2.05;;
46086;SDS011;31824;49.648;8.640;2023-07-24T06:03:16;5.57;;;2.40;;
46086;SDS011;31824;49.648;8.640;2023-07-24T06:06:18;7.35;;;2.40;;
46086;SDS011;31824;49.648;8.640;2023-07-24T06:09:20;7.90;;;2.50;;
46086;SDS011;31824;49.648;8.640;2023-07-24T06:12:22;4.60;;;2.20;;
46086;SDS011;31824;49.648;8.640;2023-07-24T06:15:25;3.88;;;1.98;;
46086;SDS011;31824;49.648;8.640;2023-07-24T06:18:27;4.80;;;1.75;;
46086;SDS011;31824;49.648;8.640;2023-07-24T06:21:30;5.50;;;2.08;;
46086;SDS011;31824;49.648;8.640;2023-07-24T06:24:32;7.40;;;2.50;;
46086;SDS011;31824;49.648;8.640;2023-07-24T06:27:34;6.82;;;2.10;;
46086;SDS011;31824;49.648;8.640;2023-07-24T06:30:37;6.75;;;2.53;;
46086;SDS011;31824;49.648;8.640;2023-07-24T06:33:39;6.07;;;2.30;;
46086;SDS011;31824;49.648;8.640;2023-07-24T06:36:41;9.68;;;2.13;;
46086;SDS011;31824;49.648;8.640;2023-07-24T06:39:43;5.30;;;2.17;;
46086;SDS011;31824;49.648;8.640;2023-07-24T06:42:45;6.25;;;1.98;;
46086;SDS011;31824;49.648;8.640;2023-07-24T06:45:48;6.95;;;1.98;;
46086;SDS011;31824;49.648;8.640;2023-07-24T06:48:50;4.45;;;1.90;;
46086;SDS011;31824;49.648;8.640;2023-07-24T06:51:52;5.40;;;2.22;;
46086;SDS011;31824;49.648;8.640;2023-07-24T06:54:54;6.35;;;2.20;;
46086;SDS011;31824;49.648;8.640;2023-07-24T06:57:56;6.90;;;2.22;;
46086;SDS011;31824;49.648;8.640;2023-07-24T07:00:59;5.03;;;2.25;;
46086;SDS011;31824;49.648;8.640;2023-07-24T07:04:02;5.15;;;2.38;;
46086;SDS011;31824;49.648;8.640;2023-07-24T07:07:04;5.85;;;2.53;;
46086;SDS011;31824;49.648;8.640;2023-07-24T07:10:06;6.55;;;2.50;;
46086;SDS011;31824;49.648;8.640;2023-07-24T07:13:08;4.15;;;2.15;;
46086;SDS011;31824;49.648;8.640;2023-07-24T07:16:11;6.00;;;2.45;;
46086;SDS011;31824;49.648;8.640;2023-07-24T07:19:13;5.82;;;2.58;;
46086;SDS011;31824;49.648;8.640;2023-07-24T07:22:15;5.03;;;2.00;;
46086;SDS011;31824;49.648;8.640;2023-07-24T07:25:17;6.00;;;2.80;;
46086;SDS011;31824;49.648;8.640;2023-07-24T07:28:19;5.78;;;2.67;;
46086;SDS011;31824;49.648;8.640;2023-07-24T07:31:22;6.93;;;2.35;;
46086;SDS011;31824;49.648;8.640;2023-07-24T07:34:24;5.47;;;2.55;;
46086;SDS011;31824;49.648;8.640;2023-07-24T07:37:27;4.85;;;2.30;;
46086;SDS011;31824;49.648;8.640;2023-07-24T07:40:29;5.47;;;2.47;;
46086;SDS011;31824;49.648;8.640;2023-07-24T07:43:31;5.30;;;2.55;;
46086;SDS011;31824;49.648;8.640;2023-07-24T07:46:34;7.53;;;2.90;;
46086;SDS011;31824;49.648;8.640;2023-07-24T07:49:36;7.15;;;2.88;;
46086;SDS011;31824;49.648;8.640;2023-07-24T07:52:38;6.88;;;2.47;;
46086;SDS011;31824;49.648;8.640;2023-07-24T07:55:40;5.82;;;2.42;;
46086;SDS011;31824;49.648;8.640;2023-07-24T07:58:42;7.78;;;2.45;;
46086;SDS011;31824;49.648;8.640;2023-07-24T08:01:45;6.97;;;2.25;;
46086;SDS011;31824;49.648;8.640;2023-07-24T08:04:47;5.32;;;2.45;;
46086;SDS011;31824;49.648;8.640;2023-07-24T08:07:49;5.88;;;2.30;;
46086;SDS011;31824;49.648;8.640;2023-07-24T08:10:50;6.63;;;2.65;;
46086;SDS011;31824;49.648;8.640;2023-07-24T08:13:52;6.78;;;2.13;;
46086;SDS011;31824;49.648;8.640;2023-07-24T08:16:55;6.00;;;2.45;;
46086;SDS011;31824;49.648;8.640;2023-07-24T08:19:57;6.80;;;2.28;;
46086;SDS011;31824;49.648;8.640;2023-07-24T08:22:59;6.43;;;2.50;;
46086;SDS011;31824;49.648;8.640;2023-07-24T08:26:01;6.07;;;2.50;;
46086;SDS011;31824;49.648;8.640;2023-07-24T08:29:04;6.80;;;2.60;;
46086;SDS011;31824;49.648;8.640;2023-07-24T08:32:08;6.63;;;2.60;;
46086;SDS011;31824;49.648;8.640;2023-07-24T08:35:10;7.10;;;2.33;;
46086;SDS011;31824;49.648;8.640;2023-07-24T08:38:12;7.28;;;2.70;;
46086;SDS011;31824;49.648;8.640;2023-07-24T08:41:14;9.15;;;2.80;;
46086;SDS011;31824;49.648;8.640;2023-07-24T08:44:16;5.88;;;2.78;;
46086;SDS011;31824;49.648;8.640;2023-07-24T08:47:19;4.60;;;2.10;;
46086;SDS011;31824;49.648;8.640;2023-07-24T08:50:21;7.03;;;2.72;;
46086;SDS011;31824;49.648;8.640;2023-07-24T08:53:24;5.00;;;2.15;;
46086;SDS011;31824;49.648;8.640;2023-07-24T08:56:27;5.32;;;2.10;;
46086;SDS011;31824;49.648;8.640;2023-07-24T08:59:29;5.80;;;2.35;;
46086;SDS011;31824;49.648;8.640;2023-07-24T09:02:33;6.63;;;2.15;;
46086;SDS011;31824;49.648;8.640;2023-07-24T09:05:36;7.43;;;2.38;;
46086;SDS011;31824;49.648;8.640;2023-07-24T09:08:39;7.50;;;2.00;;
46086;SDS011;31824;49.648;8.640;2023-07-24T09:12:00;6.00;;;2.25;;
46086;SDS011;31824;49.648;8.640;2023-07-24T09:15:02;5.43;;;2.22;;
46086;SDS011;31824;49.648;8.640;2023-07-24T09:18:08;4.10;;;2.15;;
46086;SDS011;31824;49.648;8.640;2023-07-24T09:21:13;7.43;;;2.17;;
46086;SDS011;31824;49.648;8.640;2023-07-24T09:24:15;4.85;;;1.98;;
46086;SDS011;31824;49.648;8.640;2023-07-24T09:27:17;6.20;;;2.30;;
46086;SDS011;31824;49.648;8.640;2023-07-24T09:30:20;5.47;;;2.50;;
46086;SDS011;31824;49.648;8.640;2023-07-24T09:33:35;5.20;;;2.22;;
46086;SDS011;31824;49.648;8.640;2023-07-24T09:36:40;4.47;;;2.03;;
46086;SDS011;31824;49.648;8.640;2023-07-24T09:40:03;7.22;;;2.63;;
46086;SDS011;31824;49.648;8.640;2023-07-24T09:43:14;6.43;;;2.33;;
46086;SDS011;31824;49.648;8.640;2023-07-24T09:46:39;5.40;;;2.25;;
46086;SDS011;31824;49.648;8.640;2023-07-24T09:49:45;4.82;;;2.20;;
46086;SDS011;31824;49.648;8.640;2023-07-24T09:55:52;5.72;;;2.20;;
46086;SDS011;31824;49.648;8.640;2023-07-24T09:58:58;5.43;;;2.13;;
46086;SDS011;31824;49.648;8.640;2023-07-24T10:02:01;4.78;;;2.17;;
46086;SDS011;31824;49.648;8.640;2023-07-24T10:05:06;5.72;;;2.30;;
46086;SDS011;31824;49.648;8.640;2023-07-24T10:08:09;5.70;;;2.45;;
46086;SDS011;31824;49.648;8.640;2023-07-24T10:11:12;4.45;;;2.35;;
46086;SDS011;31824;49.648;8.640;2023-07-24T10:14:15;5.68;;;2.08;;
46086;SDS011;31824;49.648;8.640;2023-07-24T10:17:24;6.28;;;2.40;;
46086;SDS011;31824;49.648;8.640;2023-07-24T10:20:37;4.93;;;2.25;;
46086;SDS011;31824;49.648;8.640;2023-07-24T10:23:41;8.35;;;2.97;;
46086;SDS011;31824;49.648;8.640;2023-07-24T10:26:44;5.60;;;2.20;;
46086;SDS011;31824;49.648;8.640;2023-07-24T10:29:46;6.57;;;2.38;;
46086;SDS011;31824;49.648;8.640;2023-07-24T10:33:03;5.63;;;2.45;;
46086;SDS011;31824;49.648;8.640;2023-07-24T10:36:08;5.68;;;2.65;;
46086;SDS011;31824;49.648;8.640;2023-07-24T10:39:15;5.05;;;2.60;;
46086;SDS011;31824;49.648;8.640;2023-07-24T10:42:22;4.28;;;2.35;;
46086;SDS011;31824;49.648;8.640;2023-07-24T10:45:24;5.30;;;2.40;;
46086;SDS011;31824;49.648;8.640;2023-07-24T10:48:26;5.45;;;2.42;;
46086;SDS011;31824;49.648;8.640;2023-07-24T10:51:30;7.82;;;3.10;;
46086;SDS011;31824;49.648;8.640;2023-07-24T10:55:01;4.38;;;2.28;;
46086;SDS011;31824;49.648;8.640;2023-07-24T10:58:03;5.18;;;2.50;;
46086;SDS011;31824;49.648;8.640;2023-07-24T11:01:05;4.35;;;2.08;;
46086;SDS011;31824;49.648;8.640;2023-07-24T11:04:47;5.60;;;2.63;;
46086;SDS011;31824;49.648;8.640;2023-07-24T11:07:50;4.10;;;2.20;;
46086;SDS011;31824;49.648;8.640;2023-07-24T11:10:53;4.60;;;1.90;;
46086;SDS011;31824;49.648;8.640;2023-07-24T11:13:56;4.95;;;2.20;;
46086;SDS011;31824;49.648;8.640;2023-07-24T11:16:58;5.95;;;2.28;;
46086;SDS011;31824;49.648;8.640;2023-07-24T11:20:04;6.47;;;2.22;;
46086;SDS011;31824;49.648;8.640;2023-07-24T11:23:08;5.40;;;2.05;;
46086;SDS011;31824;49.648;8.640;2023-07-24T11:26:11;6.85;;;2.10;;
46086;SDS011;31824;49.648;8.640;2023-07-24T11:29:13;4.38;;;2.15;;
46086;SDS011;31824;49.648;8.640;2023-07-24T11:32:17;6.07;;;2.13;;
46086;SDS011;31824;49.648;8.640;2023-07-24T11:35:19;4.95;;;2.13;;
46086;SDS011;31824;49.648;8.640;2023-07-24T11:38:24;4.97;;;2.30;;
46086;SDS011;31824;49.648;8.640;2023-07-24T11:41:26;4.72;;;2.05;;
46086;SDS011;31824;49.648;8.640;2023-07-24T11:44:28;6.30;;;2.20;;
46086;SDS011;31824;49.648;8.640;2023-07-24T11:47:30;5.90;;;2.10;;
46086;SDS011;31824;49.648;8.640;2023-07-24T11:50:41;4.32;;;2.13;;
46086;SDS011;31824;49.648;8.640;2023-07-24T11:53:44;4.72;;;2.17;;
46086;SDS011;31824;49.648;8.640;2023-07-24T11:56:46;5.57;;;2.40;;
46086;SDS011;31824;49.648;8.640;2023-07-24T11:59:48;8.38;;;2.53;;
46086;SDS011;31824;49.648;8.640;2023-07-24T12:02:50;5.80;;;2.47;;
46086;SDS011;31824;49.648;8.640;2023-07-24T12:05:53;4.93;;;2.15;;
46086;SDS011;31824;49.648;8.640;2023-07-24T12:09:02;5.25;;;2.05;;
46086;SDS011;31824;49.648;8.640;2023-07-24T12:12:06;5.07;;;2.53;;
46086;SDS011;31824;49.648;8.640;2023-07-24T12:15:12;7.75;;;2.60;;
46086;SDS011;31824;49.648;8.640;2023-07-24T12:18:15;7.45;;;2.45;;
46086;SDS011;31824;49.648;8.640;2023-07-24T12:21:18;6.03;;;2.53;;
46086;SDS011;31824;49.648;8.640;2023-07-24T12:24:22;5.10;;;2.58;;
46086;SDS011;31824;49.648;8.640;2023-07-24T12:27:24;5.93;;;2.38;;
46086;SDS011;31824;49.648;8.640;2023-07-24T12:30:26;6.70;;;2.60;;
46086;SDS011;31824;49.648;8.640;2023-07-24T12:33:28;4.38;;;2.03;;
46086;SDS011;31824;49.648;8.640;2023-07-24T12:36:30;4.65;;;2.30;;
46086;SDS011;31824;49.648;8.640;2023-07-24T12:39:34;4.60;;;2.50;;
46086;SDS011;31824;49.648;8.640;2023-07-24T12:42:36;4.55;;;2.10;;
46086;SDS011;31824;49.648;8.640;2023-07-24T12:45:38;11.27;;;2.78;;
46086;SDS011;31824;49.648;8.640;2023-07-24T12:48:41;4.32;;;2.17;;
46086;SDS011;31824;49.648;8.640;2023-07-24T12:51:43;5.38;;;2.20;;
46086;SDS011;31824;49.648;8.640;2023-07-24T12:54:46;5.07;;;2.20;;
46086;SDS011;31824;49.648;8.640;2023-07-24T12:58:01;6.35;;;2.40;;
46086;SDS011;31824;49.648;8.640;2023-07-24T13:01:22;7.45;;;2.40;;
46086;SDS011;31824;49.648;8.640;2023-07-24T13:04:26;5.82;;;2.20;;
46086;SDS011;31824;49.648;8.640;2023-07-24T13:07:27;6.18;;;2.55;;
46086;SDS011;31824;49.648;8.640;2023-07-24T13:10:34;5.38;;;2.08;;
46086;SDS011;31824;49.648;8.640;2023-07-24T13:13:36;5.15;;;2.30;;
46086;SDS011;31824;49.648;8.640;2023-07-24T13:16:38;5.25;;;2.25;;
46086;SDS011;31824;49.648;8.640;2023-07-24T13:19:41;6.00;;;2.35;;
46086;SDS011;31824;49.648;8.640;2023-07-24T13:22:43;5.85;;;2.42;;
46086;SDS011;31824;49.648;8.640;2023-07-24T13:25:51;5.47;;;2.53;;
46086;SDS011;31824;49.648;8.640;2023-07-24T13:28:54;4.82;;;2.08;;
46086;SDS011;31824;49.648;8.640;2023-07-24T13:31:55;5.30;;;2.25;;
46086;SDS011;31824;49.648;8.640;2023-07-24T13:34:57;4.90;;;2.47;;
46086;SDS011;31824;49.648;8.640;2023-07-24T13:38:01;5.35;;;2.53;;
46086;SDS011;31824;49.648;8.640;2023-07-24T13:41:05;5.60;;;2.50;;
46086;SDS011;31824;49.648;8.640;2023-07-24T13:44:07;5.60;;;2.40;;
46086;SDS011;31824;49.648;8.640;2023-07-24T13:47:09;4.47;;;2.15;;
46086;SDS011;31824;49.648;8.640;2023-07-24T13:50:11;4.45;;;2.20;;
46086;SDS011;31824;49.648;8.640;2023-07-24T13:53:14;6.72;;;2.35;;
46086;SDS011;31824;49.648;8.640;2023-07-24T13:56:17;4.80;;;2.30;;
46086;SDS011;31824;49.648;8.640;2023-07-24T13:59:24;5.07;;;1.92;;
46086;SDS011;31824;49.648;8.640;2023-07-24T14:02:26;3.90;;;2.15;;
46086;SDS011;31824;49.648;8.640;2023-07-24T14:05:28;5.10;;;2.53;;
46086;SDS011;31824;49.648;8.640;2023-07-24T14:08:30;4.53;;;2.20;;
46086;SDS011;31824;49.648;8.640;2023-07-24T14:11:33;4.72;;;2.45;;
46086;SDS011;31824;49.648;8.640;2023-07-24T14:14:35;4.80;;;2.00;;
46086;SDS011;31824;49.648;8.640;2023-07-24T14:17:37;4.60;;;2.03;;
46086;SDS011;31824;49.648;8.640;2023-07-24T14:20:39;5.47;;;2.20;;
46086;SDS011;31824;49.648;8.640;2023-07-24T14:23:42;2.85;;;1.20;;
46086;SDS011;31824;49.648;8.640;2023-07-24T14:26:45;3.60;;;1.40;;
46086;SDS011;31824;49.648;8.640;2023-07-24T14:29:47;4.50;;;1.70;;
46086;SDS011;31824;49.648;8.640;2023-07-24T14:32:49;5.00;;;1.70;;
46086;SDS011;31824;49.648;8.640;2023-07-24T14:35:52;4.10;;;1.88;;
46086;SDS011;31824;49.648;8.640;2023-07-24T14:38:54;6.03;;;1.60;;
46086;SDS011;31824;49.648;8.640;2023-07-24T14:41:57;7.82;;;2.00;;
46086;SDS011;31824;49.648;8.640;2023-07-24T14:44:58;4.05;;;1.88;;
46086;SDS011;31824;49.648;8.640;2023-07-24T14:48:04;8.55;;;2.70;;
46086;SDS011;31824;49.648;8.640;2023-07-24T14:51:06;7.78;;;2.70;;
46086;SDS011;31824;49.648;8.640;2023-07-24T14:54:08;6.85;;;3.53;;
46086;SDS011;31824;49.648;8.640;2023-07-24T14:57:12;8.15;;;3.95;;
46086;SDS011;31824;49.648;8.640;2023-07-24T15:00:26;5.53;;;2.78;;
46086;SDS011;31824;49.648;8.640;2023-07-24T15:03:27;7.03;;;3.20;;
46086;SDS011;31824;49.648;8.640;2023-07-24T15:06:29;6.18;;;2.92;;
46086;SDS011;31824;49.648;8.640;2023-07-24T15:09:31;7.65;;;3.00;;
46086;SDS011;31824;49.648;8.640;2023-07-24T15:12:34;7.70;;;2.63;;
46086;SDS011;31824;49.648;8.640;2023-07-24T15:15:36;8.48;;;3.13;;
46086;SDS011;31824;49.648;8.640;2023-07-24T15:18:41;9.50;;;3.22;;
46086;SDS011;31824;49.648;8.640;2023-07-24T15:21:43;7.60;;;2.72;;
46086;SDS011;31824;49.648;8.640;2023-07-24T15:24:45;7.88;;;3.63;;
46086;SDS011;31824;49.648;8.640;2023-07-24T15:27:48;8.55;;;3.50;;
46086;SDS011;31824;49.648;8.640;2023-07-24T15:30:50;7.70;;;3.05;;
46086;SDS011;31824;49.648;8.640;2023-07-24T15:33:52;8.13;;;2.90;;
46086;SDS011;31824;49.648;8.640;2023-07-24T15:36:54;7.72;;;2.63;;
46086;SDS011;31824;49.648;8.640;2023-07-24T15:39:56;7.25;;;2.65;;
46086;SDS011;31824;49.648;8.640;2023-07-24T15:43:00;5.38;;;2.17;;
46086;SDS011;31824;49.648;8.640;2023-07-24T15:46:02;6.40;;;2.50;;
46086;SDS011;31824;49.648;8.640;2023-07-24T15:49:04;7.55;;;3.40;;
46086;SDS011;31824;49.648;8.640;2023-07-24T15:52:06;9.75;;;3.50;;
46086;SDS011;31824;49.648;8.640;2023-07-24T15:55:08;6.53;;;2.40;;
46086;SDS011;31824;49.648;8.640;2023-07-24T15:58:13;5.55;;;2.50;;
46086;SDS011;31824;49.648;8.640;2023-07-24T16:01:15;5.05;;;2.15;;
46086;SDS011;31824;49.648;8.640;2023-07-24T16:04:17;8.15;;;2.30;;
46086;SDS011;31824;49.648;8.640;2023-07-24T16:07:22;7.03;;;2.38;;
46086;SDS011;31824;49.648;8.640;2023-07-24T16:10:24;5.35;;;1.85;;
46086;SDS011;31824;49.648;8.640;2023-07-24T16:13:46;3.63;;;1.10;;
46086;SDS011;31824;49.648;8.640;2023-07-24T16:16:48;8.90;;;0.80;;
46086;SDS011;31824;49.648;8.640;2023-07-24T16:19:50;2.00;;;0.90;;
46086;SDS011;31824;49.648;8.640;2023-07-24T16:22:53;2.80;;;0.93;;
46086;SDS011;31824;49.648;8.640;2023-07-24T16:25:56;3.65;;;0.73;;
46086;SDS011;31824;49.648;8.640;2023-07-24T16:28:59;1.85;;;0.73;;
46086;SDS011;31824;49.648;8.640;2023-07-24T16:32:01;3.90;;;0.88;;
46086;SDS011;31824;49.648;8.640;2023-07-24T16:35:04;3.15;;;1.00;;
46086;SDS011;31824;49.648;8.640;2023-07-24T16:38:06;1.95;;;0.85;;
46086;SDS011;31824;49.648;8.640;2023-07-24T16:41:09;2.63;;;0.95;;
46086;SDS011;31824;49.648;8.640;2023-07-24T16:44:13;1.90;;;0.90;;
46086;SDS011;31824;49.648;8.640;2023-07-24T16:47:16;3.17;;;0.90;;
46086;SDS011;31824;49.648;8.640;2023-07-24T16:50:18;2.17;;;0.90;;
46086;SDS011;31824;49.648;8.640;2023-07-24T16:53:20;2.15;;;1.02;;
46086;SDS011;31824;49.648;8.640;2023-07-24T16:56:22;4.80;;;1.50;;
46086;SDS011;31824;49.648;8.640;2023-07-24T16:59:25;2.75;;;0.98;;
46086;SDS011;31824;49.648;8.640;2023-07-24T17:02:29;3.13;;;1.23;;
46086;SDS011;31824;49.648;8.640;2023-07-24T17:05:33;1.67;;;0.82;;
46086;SDS011;31824;49.648;8.640;2023-07-24T17:08:34;2.03;;;0.98;;
46086;SDS011;31824;49.648;8.640;2023-07-24T17:11:36;2.70;;;1.00;;
46086;SDS011;31824;49.648;8.640;2023-07-24T17:14:40;2.47;;;1.13;;
46086;SDS011;31824;49.648;8.640;2023-07-24T17:17:42;7.28;;;3.15;;
46086;SDS011;31824;49.648;8.640;2023-07-24T17:20:45;3.90;;;1.00;;
46086;SDS011;31824;49.648;8.640;2023-07-24T17:26:51;1.55;;;0.50;;
46086;SDS011;31824;49.648;8.640;2023-07-24T17:29:55;1.85;;;0.68;;
46086;SDS011;31824;49.648;8.640;2023-07-24T17:32:57;5.05;;;1.80;;
46086;SDS011;31824;49.648;8.640;2023-07-24T17:35:59;1.20;;;0.55;;
46086;SDS011;31824;49.648;8.640;2023-07-24T17:39:00;1.70;;;0.60;;
46086;SDS011;31824;49.648;8.640;2023-07-24T17:42:03;1.42;;;0.40;;
46086;SDS011;31824;49.648;8.640;2023-07-24T17:45:07;1.08;;;0.50;;
46086;SDS011;31824;49.648;8.640;2023-07-24T17:48:09;2.35;;;0.55;;
46086;SDS011;31824;49.648;8.640;2023-07-24T17:51:11;1.75;;;0.70;;
46086;SDS011;31824;49.648;8.640;2023-07-24T17:54:13;3.35;;;1.00;;
46086;SDS011;31824;49.648;8.640;2023-07-24T17:57:15;4.43;;;1.50;;
46086;SDS011;31824;49.648;8.640;2023-07-24T18:00:18;6.63;;;2.25;;
46086;SDS011;31824;49.648;8.640;2023-07-24T18:03:23;2.58;;;1.02;;
46086;SDS011;31824;49.648;8.640;2023-07-24T18:06:25;3.28;;;0.88;;
46086;SDS011;31824;49.648;8.640;2023-07-24T18:09:27;1.70;;;0.70;;
46086;SDS011;31824;49.648;8.640;2023-07-24T18:12:29;1.60;;;0.70;;
46086;SDS011;31824;49.648;8.640;2023-07-24T18:15:32;3.90;;;0.75;;
46086;SDS011;31824;49.648;8.640;2023-07-24T18:18:34;2.58;;;0.60;;
46086;SDS011;31824;49.648;8.640;2023-07-24T18:21:36;2.33;;;0.70;;
46086;SDS011;31824;49.648;8.640;2023-07-24T18:24:38;1.73;;;0.50;;
46086;SDS011;31824;49.648;8.640;2023-07-24T18:27:40;1.50;;;0.80;;
46086;SDS011;31824;49.648;8.640;2023-07-24T18:30:44;1.38;;;0.73;;
46086;SDS011;31824;49.648;8.640;2023-07-24T18:33:47;1.38;;;0.70;;
46086;SDS011;31824;49.648;8.640;2023-07-24T18:36:49;1.42;;;0.60;;